createdAt,value
2022-08-18T00:00:06.628Z,99.99
2022-08-18T00:01:06.605Z,99.99
2022-08-18T00:02:06.713Z,99.99
2022-08-18T00:03:14.232Z,99.99
2022-08-18T00:04:27.819Z,99.99
2022-08-18T00:05:07.547Z,99.99
2022-08-18T00:06:06.550Z,99.99
2022-08-18T00:07:06.530Z,99.99
2022-08-18T00:08:06.509Z,99.99
2022-08-18T00:09:06.502Z,99.99
2022-08-18T00:10:06.600Z,99.99
2022-08-18T00:11:07.461Z,99.99
2022-08-18T00:12:06.472Z,99.99
2022-08-18T00:13:06.430Z,99.99
2022-08-18T00:14:06.443Z,99.99
2022-08-18T00:15:06.415Z,99.99
2022-08-18T00:16:06.423Z,99.99
2022-08-18T00:17:06.394Z,99.99
2022-08-18T00:18:06.373Z,99.99
2022-08-18T00:19:09.405Z,99.99
2022-08-18T00:20:06.355Z,99.99
2022-08-18T00:21:06.323Z,99.99
2022-08-18T00:22:06.337Z,99.99
2022-08-18T00:23:06.308Z,99.99
2022-08-18T00:24:06.284Z,99.99
2022-08-18T00:25:06.279Z,99.99
2022-08-18T00:26:06.263Z,99.99
2022-08-18T00:27:06.353Z,99.99
2022-08-18T00:28:06.248Z,99.99
2022-08-18T00:29:06.216Z,99.99
2022-08-18T00:30:06.220Z,99.99
2022-08-18T00:31:06.204Z,99.99
2022-08-18T00:32:06.177Z,99.99
2022-08-18T00:33:06.291Z,99.99
2022-08-18T00:34:06.149Z,99.99
2022-08-18T00:35:06.129Z,99.99
2022-08-18T00:36:06.141Z,99.99
2022-08-18T00:37:06.122Z,99.94
2022-08-18T00:38:06.103Z,99.54
2022-08-18T00:39:06.080Z,99.33
2022-08-18T00:40:06.175Z,99.33
2022-08-18T00:41:06.056Z,99.94
2022-08-18T00:42:06.062Z,99.64
2022-08-18T00:43:06.035Z,99.64
2022-08-18T00:44:06.012Z,99.99
2022-08-18T00:45:06.014Z,99.99
2022-08-18T00:46:05.991Z,99.99
2022-08-18T00:47:05.973Z,99.99
2022-08-18T00:48:05.978Z,99.99
2022-08-18T00:49:06.056Z,99.99
2022-08-18T00:50:05.948Z,99.99
2022-08-18T00:51:05.927Z,99.99
2022-08-18T00:52:05.911Z,99.99
2022-08-18T00:53:05.885Z,99.99
2022-08-18T00:54:05.891Z,99.99
2022-08-18T00:55:05.900Z,99.99
2022-08-18T00:56:05.846Z,99.99
2022-08-18T00:57:05.850Z,99.99
2022-08-18T00:58:05.826Z,99.99
2022-08-18T00:59:05.807Z,99.99
2022-08-18T01:00:05.810Z,99.99
2022-08-18T01:01:05.885Z,99.99
2022-08-18T01:02:05.782Z,99.99
2022-08-18T01:03:05.762Z,99.99
2022-08-18T01:04:05.739Z,99.99
2022-08-18T01:05:05.734Z,99.99
2022-08-18T01:06:05.719Z,99.99
2022-08-18T01:07:05.700Z,99.99
2022-08-18T01:08:05.706Z,99.99
2022-08-18T01:09:05.684Z,99.99
2022-08-18T01:10:05.669Z,99.99
2022-08-18T01:11:05.642Z,99.99
2022-08-18T01:12:43.794Z,99.99
2022-08-18T01:13:06.611Z,99.99
2022-08-18T01:14:05.616Z,99.99
2022-08-18T01:15:05.606Z,99.99
2022-08-18T01:16:05.580Z,99.99
2022-08-18T01:17:05.568Z,99.99
2022-08-18T01:18:05.674Z,99.99
2022-08-18T01:19:05.533Z,99.99
2022-08-18T01:20:05.539Z,99.99
2022-08-18T01:21:05.509Z,99.99
2022-08-18T01:22:05.512Z,99.99
2022-08-18T01:23:05.488Z,99.99
2022-08-18T01:24:05.583Z,99.99
2022-08-18T01:25:05.469Z,99.99
2022-08-18T01:26:05.436Z,99.99
2022-08-18T01:27:05.434Z,99.99
2022-08-18T01:28:05.422Z,99.99
2022-08-18T01:29:05.398Z,99.99
2022-08-18T01:30:05.449Z,99.99
2022-08-18T01:31:05.392Z,99.99
2022-08-18T01:32:05.366Z,99.99
2022-08-18T01:33:05.370Z,99.99
2022-08-18T01:34:05.325Z,99.99
2022-08-18T01:35:05.319Z,99.99
2022-08-18T01:36:05.323Z,99.99
2022-08-18T01:37:05.290Z,99.99
2022-08-18T01:38:05.290Z,99.99
2022-08-18T01:39:05.275Z,99.99
2022-08-18T01:41:24.228Z,99.99
2022-08-18T01:41:27.238Z,99.99
2022-08-18T01:42:06.300Z,99.99
2022-08-18T01:43:05.233Z,99.99
2022-08-18T01:44:05.193Z,99.99
2022-08-18T01:45:05.197Z,99.99
2022-08-18T01:46:05.163Z,99.99
2022-08-18T01:47:05.186Z,99.99
2022-08-18T01:48:05.380Z,99.99
2022-08-18T01:49:05.124Z,99.99
2022-08-18T01:50:05.118Z,99.99
2022-08-18T01:51:05.118Z,99.99
2022-08-18T01:52:05.076Z,99.99
2022-08-18T01:53:05.089Z,99.99
2022-08-18T01:54:05.058Z,99.99
2022-08-18T01:55:05.047Z,99.99
2022-08-18T01:56:05.040Z,99.99
2022-08-18T01:57:05.031Z,99.99
2022-08-18T01:58:05.017Z,99.99
2022-08-18T01:59:04.988Z,99.99
2022-08-18T02:00:04.984Z,99.99
2022-08-18T02:01:04.974Z,99.99
2022-08-18T02:02:04.992Z,99.99
2022-08-18T02:03:04.952Z,99.99
2022-08-18T02:04:30.959Z,99.99
2022-08-18T02:05:05.923Z,99.99
2022-08-18T02:06:04.891Z,99.99
2022-08-18T02:07:04.885Z,99.99
2022-08-18T02:08:04.886Z,99.99
2022-08-18T02:09:04.852Z,99.99
2022-08-18T02:10:04.956Z,99.99
2022-08-18T02:11:05.847Z,99.99
2022-08-18T02:12:04.823Z,99.99
2022-08-18T02:13:04.824Z,99.99
2022-08-18T02:14:04.806Z,99.99
2022-08-18T02:15:04.792Z,99.99
2022-08-18T02:16:04.776Z,99.99
2022-08-18T02:17:04.758Z,99.99
2022-08-18T02:18:04.729Z,99.99
2022-08-18T02:19:04.717Z,99.99
2022-08-18T02:20:04.713Z,99.99
2022-08-18T02:21:04.808Z,99.99
2022-08-18T02:22:04.702Z,99.99
2022-08-18T02:23:04.691Z,99.99
2022-08-18T02:24:04.647Z,99.99
2022-08-18T02:25:04.666Z,99.99
2022-08-18T02:26:04.649Z,99.99
2022-08-18T02:27:04.748Z,99.99
2022-08-18T02:28:04.602Z,99.99
2022-08-18T02:29:04.580Z,99.99
2022-08-18T02:30:04.587Z,99.99
2022-08-18T02:31:04.572Z,99.99
2022-08-18T02:32:04.532Z,99.99
2022-08-18T02:33:04.544Z,99.99
2022-08-18T02:34:04.501Z,99.99
2022-08-18T02:35:04.502Z,99.99
2022-08-18T02:36:04.494Z,99.99
2022-08-18T02:37:04.523Z,99.99
2022-08-18T02:38:04.466Z,99.99
2022-08-18T02:39:04.456Z,99.99
2022-08-18T02:40:04.454Z,99.99
2022-08-18T02:41:04.437Z,99.99
2022-08-18T02:42:04.401Z,99.99
2022-08-18T02:43:04.394Z,99.99
2022-08-18T02:44:04.378Z,99.99
2022-08-18T02:45:04.378Z,99.99
2022-08-18T02:46:04.346Z,99.99
2022-08-18T02:47:04.336Z,99.99
2022-08-18T02:48:04.475Z,99.99
2022-08-18T02:49:04.311Z,99.99
2022-08-18T02:50:04.310Z,99.99
2022-08-18T02:51:04.301Z,99.99
2022-08-18T02:52:04.258Z,99.99
2022-08-18T02:53:04.269Z,99.99
2022-08-18T02:54:04.268Z,99.99
2022-08-18T02:55:04.233Z,99.99
2022-08-18T02:56:04.223Z,99.99
2022-08-18T02:57:04.199Z,99.99
2022-08-18T02:58:04.196Z,99.99
2022-08-18T02:59:04.185Z,99.99
2022-08-18T03:00:04.279Z,99.99
2022-08-18T03:01:04.175Z,99.99
2022-08-18T03:02:04.143Z,99.99
2022-08-18T03:03:04.134Z,99.99
2022-08-18T03:04:04.102Z,99.99
2022-08-18T03:05:04.104Z,99.99
2022-08-18T03:06:04.103Z,99.99
2022-08-18T03:07:04.063Z,99.99
2022-08-18T03:08:04.056Z,99.99
2022-08-18T03:09:04.033Z,99.99
2022-08-18T03:10:32.892Z,99.99
2022-08-18T03:11:05.047Z,99.99
2022-08-18T03:12:03.984Z,99.99
2022-08-18T03:13:03.988Z,99.99
2022-08-18T03:14:03.957Z,99.99
2022-08-18T03:15:03.953Z,99.99
2022-08-18T03:16:03.949Z,99.99
2022-08-18T03:17:04.049Z,99.99
2022-08-18T03:18:03.906Z,99.99
2022-08-18T03:19:03.898Z,99.99
2022-08-18T03:20:03.892Z,99.99
2022-08-18T03:21:03.870Z,99.99
2022-08-18T03:22:03.869Z,99.99
2022-08-18T03:23:05.763Z,99.99
2022-08-18T03:24:09.080Z,99.99
2022-08-18T03:25:04.834Z,99.99
2022-08-18T03:26:03.796Z,99.99
2022-08-18T03:27:03.792Z,99.99
2022-08-18T03:28:03.786Z,99.99
2022-08-18T03:29:03.760Z,99.99
2022-08-18T03:30:03.761Z,99.99
2022-08-18T03:31:03.750Z,99.99
2022-08-18T03:32:03.718Z,99.99
2022-08-18T03:33:03.755Z,99.99
2022-08-18T03:34:03.682Z,99.99
2022-08-18T03:35:03.681Z,99.99
2022-08-18T03:36:03.677Z,99.99
2022-08-18T03:37:03.653Z,99.99
2022-08-18T03:38:03.638Z,99.99
2022-08-18T03:39:03.669Z,99.99
2022-08-18T03:40:03.707Z,99.99
2022-08-18T03:41:03.609Z,99.99
2022-08-18T03:42:03.574Z,99.99
2022-08-18T03:43:03.567Z,99.99
2022-08-18T03:44:04.679Z,99.99
2022-08-18T03:45:13.348Z,99.99
2022-08-18T03:46:04.539Z,99.99
2022-08-18T03:47:03.532Z,99.99
2022-08-18T03:48:03.497Z,99.99
2022-08-18T03:49:03.489Z,99.99
2022-08-18T03:50:03.488Z,99.99
2022-08-18T03:51:05.356Z,99.99
2022-08-18T03:52:03.443Z,99.99
2022-08-18T03:53:03.451Z,99.99
2022-08-18T03:54:03.410Z,99.99
2022-08-18T03:55:03.518Z,99.99
2022-08-18T03:56:03.403Z,99.99
2022-08-18T03:57:03.385Z,99.99
2022-08-18T03:58:03.373Z,99.99
2022-08-18T03:59:03.364Z,99.99
2022-08-18T04:00:03.336Z,99.99
2022-08-18T04:01:03.411Z,99.99
2022-08-18T04:02:03.303Z,99.99
2022-08-18T04:03:03.292Z,99.99
2022-08-18T04:04:03.290Z,99.99
2022-08-18T04:05:03.285Z,99.99
2022-08-18T04:06:03.254Z,99.99
2022-08-18T04:07:03.244Z,99.99
2022-08-18T04:08:03.238Z,99.99
2022-08-18T04:09:03.217Z,99.99
2022-08-18T04:10:03.210Z,99.99
2022-08-18T04:11:03.201Z,99.99
2022-08-18T04:12:03.196Z,99.99
2022-08-18T04:13:03.180Z,99.99
2022-08-18T04:14:03.144Z,99.99
2022-08-18T04:15:03.136Z,99.99
2022-08-18T04:16:03.131Z,99.99
2022-08-18T04:17:03.108Z,99.99
2022-08-18T04:18:04.104Z,99.99
2022-08-18T04:19:03.269Z,99.99
2022-08-18T04:20:03.059Z,99.99
2022-08-18T04:21:03.049Z,99.99
2022-08-18T04:22:03.051Z,99.99
2022-08-18T04:23:03.043Z,99.99
2022-08-18T04:24:03.120Z,99.99
2022-08-18T04:25:03.014Z,99.99
2022-08-18T04:26:02.980Z,99.99
2022-08-18T04:27:02.982Z,99.99
2022-08-18T04:28:02.966Z,99.99
2022-08-18T04:29:02.948Z,99.99
2022-08-18T04:30:02.944Z,99.99
2022-08-18T04:31:02.926Z,99.99
2022-08-18T04:32:03.895Z,99.99
2022-08-18T04:33:02.905Z,99.99
2022-08-18T04:34:02.864Z,99.99
2022-08-18T04:35:03.317Z,99.99
2022-08-18T04:36:02.857Z,99.99
2022-08-18T04:37:02.833Z,99.99
2022-08-18T04:38:02.829Z,99.99
2022-08-18T04:39:02.820Z,99.99
2022-08-18T04:40:02.883Z,99.99
2022-08-18T04:41:02.828Z,99.99
2022-08-18T04:42:02.758Z,99.99
2022-08-18T04:43:02.757Z,99.99
2022-08-18T04:44:02.751Z,99.99
2022-08-18T04:45:02.728Z,99.99
2022-08-18T04:46:02.721Z,99.99
2022-08-18T04:47:02.712Z,99.99
2022-08-18T04:48:02.678Z,99.99
2022-08-18T04:49:02.683Z,99.99
2022-08-18T04:50:02.648Z,99.99
2022-08-18T04:51:02.648Z,99.99
2022-08-18T04:52:26.584Z,99.99
2022-08-18T04:53:03.633Z,99.99
2022-08-18T04:54:02.602Z,99.99
2022-08-18T04:55:02.591Z,99.99
2022-08-18T04:56:02.605Z,99.99
2022-08-18T04:57:02.561Z,99.99
2022-08-18T04:58:02.686Z,99.99
2022-08-18T04:59:02.555Z,99.99
2022-08-18T05:00:02.523Z,99.99
2022-08-18T05:01:02.615Z,99.99
2022-08-18T05:02:02.494Z,99.99
2022-08-18T05:03:02.488Z,99.99
2022-08-18T05:04:02.514Z,99.99
2022-08-18T05:05:02.455Z,99.99
2022-08-18T05:06:02.451Z,99.99
2022-08-18T05:07:02.446Z,99.99
2022-08-18T05:08:02.417Z,99.99
2022-08-18T05:09:02.404Z,99.99
2022-08-18T05:10:02.405Z,99.99
2022-08-18T05:11:04.301Z,99.99
2022-08-18T05:12:02.360Z,99.99
2022-08-18T05:13:02.363Z,99.99
2022-08-18T05:14:02.328Z,99.99
2022-08-18T05:15:02.432Z,99.99
2022-08-18T05:16:10.816Z,99.99
2022-08-18T05:17:03.289Z,99.99
2022-08-18T05:18:02.302Z,99.99
2022-08-18T05:19:02.283Z,99.99
2022-08-18T05:20:02.308Z,99.99
2022-08-18T05:21:02.287Z,99.99
2022-08-18T05:22:02.946Z,99.99
2022-08-18T05:23:02.211Z,99.99
2022-08-18T05:24:02.206Z,99.99
2022-08-18T05:25:02.206Z,99.99
2022-08-18T05:26:02.170Z,99.99
2022-08-18T05:27:02.162Z,99.99
2022-08-18T05:28:02.158Z,99.99
2022-08-18T05:29:17.760Z,99.99
2022-08-18T05:30:03.127Z,99.99
2022-08-18T05:31:02.121Z,99.99
2022-08-18T05:32:02.105Z,99.99
2022-08-18T05:33:02.091Z,99.99
2022-08-18T05:34:02.066Z,99.99
2022-08-18T05:35:02.057Z,99.99
2022-08-18T05:36:02.048Z,99.99
2022-08-18T05:37:02.026Z,99.99
2022-08-18T05:38:02.067Z,99.99
2022-08-18T05:39:02.010Z,99.99
2022-08-18T05:40:03.454Z,99.99
2022-08-18T05:41:01.968Z,99.99
2022-08-18T05:42:01.972Z,99.99
2022-08-18T05:43:01.952Z,99.99
2022-08-18T05:44:01.949Z,99.99
2022-08-18T05:45:01.923Z,99.99
2022-08-18T05:46:01.899Z,99.99
2022-08-18T05:47:01.880Z,99.99
2022-08-18T05:48:01.891Z,99.99
2022-08-18T05:49:01.851Z,99.99
2022-08-18T05:50:01.867Z,99.99
2022-08-18T05:51:01.845Z,99.99
2022-08-18T05:52:01.820Z,99.99
2022-08-18T05:53:01.818Z,99.99
2022-08-18T05:54:01.792Z,99.99
2022-08-18T05:55:01.813Z,99.99
2022-08-18T05:56:01.778Z,99.99
2022-08-18T05:57:01.763Z,99.99
2022-08-18T05:58:01.734Z,99.99
2022-08-18T05:59:01.715Z,99.99
2022-08-18T06:00:01.728Z,99.99
2022-08-18T06:01:01.699Z,99.99
2022-08-18T06:02:01.698Z,99.99
2022-08-18T06:03:01.722Z,99.99
2022-08-18T06:04:01.656Z,99.99
2022-08-18T06:05:01.650Z,99.99
2022-08-18T06:06:01.662Z,99.99
2022-08-18T06:07:01.612Z,99.99
2022-08-18T06:08:01.611Z,99.99
2022-08-18T06:09:01.577Z,99.81
2022-08-18T06:10:01.591Z,99.81
2022-08-18T06:11:01.566Z,99.91
2022-08-18T06:12:01.659Z,99.61
2022-08-18T06:13:01.529Z,99.61
2022-08-18T06:14:01.536Z,99.31
2022-08-18T06:15:01.516Z,99.35
2022-08-18T06:16:02.490Z,99.86
2022-08-18T06:17:01.485Z,99.99
2022-08-18T06:18:01.512Z,99.66
2022-08-18T06:19:01.450Z,99.76
2022-08-18T06:20:01.456Z,99.99
2022-08-18T06:21:01.420Z,99.99
2022-08-18T06:22:01.426Z,99.99
2022-08-18T06:23:01.409Z,99.99
2022-08-18T06:24:01.413Z,99.99
2022-08-18T06:25:01.379Z,99.99
2022-08-18T06:26:01.355Z,99.99
2022-08-18T06:27:01.335Z,99.99
2022-08-18T06:28:01.347Z,99.99
2022-08-18T06:29:01.319Z,99.99
2022-08-18T06:30:01.308Z,99.99
2022-08-18T06:31:01.277Z,99.99
2022-08-18T06:32:01.288Z,99.99
2022-08-18T06:33:01.257Z,99.99
2022-08-18T06:34:01.261Z,99.99
2022-08-18T06:35:01.241Z,99.71
2022-08-18T06:36:01.218Z,99.51
2022-08-18T06:37:01.213Z,99.71
2022-08-18T06:38:01.192Z,99.71
2022-08-18T06:39:01.175Z,99.51
2022-08-18T06:40:01.254Z,99.56
2022-08-18T06:41:01.153Z,99.26
2022-08-18T06:42:01.155Z,98.76
2022-08-18T06:43:02.279Z,98.86
2022-08-18T06:44:01.113Z,98.66
2022-08-18T06:45:01.131Z,98.96
2022-08-18T06:46:01.082Z,98.16
2022-08-18T06:47:01.073Z,98.46
2022-08-18T06:48:01.075Z,98.51
2022-08-18T06:49:01.034Z,97.91
2022-08-18T06:50:01.176Z,97.20
2022-08-18T06:51:01.032Z,97.20
2022-08-18T06:52:01.012Z,97.41
2022-08-18T06:53:00.999Z,97.11
2022-08-18T06:54:00.982Z,97.41
2022-08-18T06:55:00.955Z,97.06
2022-08-18T06:56:00.971Z,96.56
2022-08-18T06:57:00.926Z,96.15
2022-08-18T06:58:00.943Z,96.76
2022-08-18T06:59:00.920Z,96.26
2022-08-18T07:00:00.896Z,95.36
2022-08-18T07:01:00.944Z,95.10
2022-08-18T07:02:00.882Z,94.90
2022-08-18T07:03:00.871Z,93.70
2022-08-18T07:04:00.839Z,93.70
2022-08-18T07:05:00.840Z,93.30
2022-08-18T07:06:00.929Z,93.30
2022-08-18T07:07:00.799Z,92.85
2022-08-18T07:08:00.809Z,92.25
2022-08-18T07:09:00.770Z,91.96
2022-08-18T07:10:00.776Z,91.91
2022-08-18T07:11:00.756Z,91.51
2022-08-18T07:12:00.743Z,92.01
2022-08-18T07:13:00.734Z,91.41
2022-08-18T07:14:15.509Z,92.21
2022-08-18T07:15:01.693Z,91.15
2022-08-18T07:16:00.696Z,91.96
2022-08-18T07:17:00.681Z,92.25
2022-08-18T07:18:00.655Z,91.51
2022-08-18T07:19:00.635Z,90.91
2022-08-18T07:20:00.659Z,90.00
2022-08-18T07:21:00.607Z,90.00
2022-08-18T07:22:00.728Z,90.31
2022-08-18T07:23:00.591Z,90.11
2022-08-18T07:24:23.040Z,90.85
2022-08-18T07:25:05.117Z,91.69
2022-08-18T07:26:00.559Z,92.30
2022-08-18T07:27:00.527Z,92.30
2022-08-18T07:28:00.532Z,92.30
2022-08-18T07:29:00.498Z,92.25
2022-08-18T07:30:00.511Z,92.25
2022-08-18T07:31:15.854Z,92.15
2022-08-18T07:32:01.459Z,91.85
2022-08-18T07:33:00.470Z,91.01
2022-08-18T07:34:00.444Z,91.20
2022-08-18T07:35:00.425Z,90.00
2022-08-18T07:36:00.405Z,89.61
2022-08-18T07:37:00.402Z,90.11
2022-08-18T07:38:00.618Z,89.61
2022-08-18T07:39:01.912Z,89.50
2022-08-18T07:40:00.415Z,89.36
2022-08-18T07:41:00.334Z,89.56
2022-08-18T07:42:00.336Z,88.76
2022-08-18T07:43:01.215Z,89.26
2022-08-18T07:44:04.154Z,89.06
2022-08-18T07:45:00.288Z,88.66
2022-08-18T07:46:00.274Z,88.76
2022-08-18T07:47:00.245Z,88.96
2022-08-18T07:48:10.847Z,89.26
2022-08-18T07:49:01.257Z,89.30
2022-08-18T07:50:20.544Z,89.96
2022-08-18T07:51:05.309Z,88.96
2022-08-18T07:52:01.240Z,89.72
2022-08-18T07:53:00.182Z,88.71
2022-08-18T07:54:00.158Z,88.28
2022-08-18T07:55:00.160Z,87.34
2022-08-18T07:56:00.142Z,86.93
2022-08-18T07:57:00.108Z,87.03
2022-08-18T07:58:00.113Z,86.73
2022-08-18T07:59:00.095Z,86.29
2022-08-18T08:00:00.196Z,85.89
2022-08-18T08:01:00.594Z,86.09
2022-08-18T08:02:00.112Z,85.79
2022-08-18T08:03:00.029Z,86.03
2022-08-18T08:04:00.036Z,87.18
2022-08-18T08:05:00.019Z,88.02
2022-08-18T08:05:59.993Z,87.98
2022-08-18T08:07:22.868Z,85.99
2022-08-18T08:08:00.978Z,86.13
2022-08-18T08:08:59.944Z,87.43
2022-08-18T08:09:59.950Z,86.53
2022-08-18T08:10:59.967Z,86.09
2022-08-18T08:11:59.906Z,85.29
2022-08-18T08:13:08.795Z,85.05
2022-08-18T08:14:00.884Z,84.15
2022-08-18T08:14:59.868Z,85.19
2022-08-18T08:15:59.871Z,85.49
2022-08-18T08:16:59.842Z,85.23
2022-08-18T08:17:59.841Z,85.43
2022-08-18T08:18:59.822Z,86.18
2022-08-18T08:20:01.203Z,86.68
2022-08-18T08:20:59.780Z,86.27
2022-08-18T08:21:59.994Z,86.27
2022-08-18T08:22:59.775Z,86.47
2022-08-18T08:23:59.752Z,85.97
2022-08-18T08:24:59.745Z,85.77
2022-08-18T08:25:59.723Z,85.03
2022-08-18T08:26:59.703Z,84.53
2022-08-18T08:27:59.714Z,84.33
2022-08-18T08:28:59.675Z,84.43
2022-08-18T08:29:59.686Z,85.03
2022-08-18T08:31:19.020Z,84.83
2022-08-18T08:32:00.642Z,84.77
2022-08-18T08:32:59.647Z,86.18
2022-08-18T08:34:02.847Z,86.57
2022-08-18T08:35:00.597Z,86.07
2022-08-18T08:35:59.599Z,85.68
2022-08-18T08:36:59.580Z,86.32
2022-08-18T08:38:08.191Z,86.82
2022-08-18T08:39:00.541Z,87.32
2022-08-18T08:39:59.615Z,87.52
2022-08-18T08:40:59.518Z,87.55
2022-08-18T08:42:28.955Z,87.55
2022-08-18T08:43:00.612Z,87.92
2022-08-18T08:43:59.478Z,87.32
2022-08-18T08:45:00.040Z,86.98
2022-08-18T08:45:59.449Z,86.68
2022-08-18T08:46:59.430Z,86.27
2022-08-18T08:48:08.076Z,86.18
2022-08-18T08:49:00.448Z,85.68
2022-08-18T08:50:01.007Z,85.97
2022-08-18T08:50:59.395Z,86.52
2022-08-18T08:51:59.379Z,87.46
2022-08-18T08:52:59.366Z,88.06
2022-08-18T08:53:59.343Z,88.50
2022-08-18T08:54:59.330Z,89.30
2022-08-18T08:56:02.531Z,89.45
2022-08-18T08:56:59.303Z,90.05
2022-08-18T08:57:59.309Z,90.05
2022-08-18T08:58:59.300Z,89.61
2022-08-18T08:59:59.304Z,89.06
2022-08-18T09:00:59.259Z,88.46
2022-08-18T09:01:59.360Z,88.02
2022-08-18T09:02:59.217Z,88.32
2022-08-18T09:03:59.229Z,87.37
2022-08-18T09:05:08.733Z,86.57
2022-08-18T09:06:00.319Z,86.32
2022-08-18T09:06:59.181Z,86.52
2022-08-18T09:07:59.163Z,86.47
2022-08-18T09:08:59.139Z,86.07
2022-08-18T09:09:59.143Z,86.37
2022-08-18T09:10:59.142Z,85.77
2022-08-18T09:11:59.218Z,86.57
2022-08-18T09:12:59.094Z,86.98
2022-08-18T09:13:59.080Z,86.91
2022-08-18T09:14:59.061Z,87.32
2022-08-18T09:15:59.064Z,87.07
2022-08-18T09:16:59.032Z,86.32
2022-08-18T09:17:59.156Z,86.82
2022-08-18T09:18:59.016Z,87.05
2022-08-18T09:19:58.993Z,87.41
2022-08-18T09:20:58.989Z,86.82
2022-08-18T09:21:58.965Z,85.87
2022-08-18T09:22:58.948Z,85.47
2022-08-18T09:23:58.958Z,85.37
2022-08-18T09:24:58.939Z,85.33
2022-08-18T09:25:58.916Z,85.17
2022-08-18T09:26:58.896Z,85.97
2022-08-18T09:28:14.297Z,86.41
2022-08-18T09:28:59.897Z,86.61
2022-08-18T09:29:58.872Z,87.12
2022-08-18T09:30:58.851Z,87.32
2022-08-18T09:31:58.879Z,87.62
2022-08-18T09:32:58.832Z,87.07
2022-08-18T09:34:00.681Z,86.11
2022-08-18T09:34:59.797Z,86.21
2022-08-18T09:35:58.795Z,85.57
2022-08-18T09:36:58.760Z,85.03
2022-08-18T09:37:58.774Z,84.09
2022-08-18T09:38:58.753Z,82.85
2022-08-18T09:39:58.801Z,82.11
2022-08-18T09:41:59.716Z,81.48
2022-08-18T09:42:58.695Z,81.18
2022-08-18T09:43:58.674Z,81.27
2022-08-18T09:44:58.669Z,80.77
2022-08-18T09:45:58.674Z,80.04
2022-08-18T09:46:58.643Z,79.94
2022-08-18T09:47:58.639Z,79.90
2022-08-18T09:48:58.604Z,79.90
2022-08-18T09:49:58.612Z,79.36
2022-08-18T09:50:58.608Z,78.90
2022-08-18T09:51:58.679Z,79.54
2022-08-18T09:52:58.561Z,80.68
2022-08-18T09:53:58.537Z,80.91
2022-08-18T09:54:58.518Z,82.01
2022-08-18T09:56:04.788Z,81.41
2022-08-18T09:56:59.634Z,81.95
2022-08-18T10:12:53.819Z,78.80
2022-08-18T10:13:53.631Z,79.64
2022-08-18T10:14:53.598Z,79.74
2022-08-18T10:15:53.603Z,79.78
2022-08-18T10:17:54.589Z,80.82
2022-08-18T10:18:53.554Z,81.41
2022-08-18T10:19:53.534Z,82.61
2022-08-18T10:20:53.511Z,81.67
2022-08-18T10:21:53.884Z,80.54
2022-08-18T10:22:53.682Z,79.74
2022-08-18T10:24:08.122Z,80.44
2022-08-18T10:24:54.476Z,80.24
2022-08-18T10:25:53.459Z,79.84
2022-08-18T10:26:55.019Z,79.94
2022-08-18T10:27:53.438Z,80.00
2022-08-18T10:28:53.418Z,78.60
2022-08-18T10:29:53.409Z,78.56
2022-08-18T10:31:54.438Z,77.77
2022-08-18T10:32:54.356Z,79.04
2022-08-18T10:33:53.360Z,80.27
2022-08-18T10:34:53.347Z,80.58
2022-08-18T10:35:53.333Z,80.88
2022-08-18T10:36:53.320Z,80.47
2022-08-18T10:37:53.289Z,80.68
2022-08-18T10:38:53.292Z,79.54
2022-08-18T10:39:53.321Z,79.28
2022-08-18T10:40:53.250Z,79.78
2022-08-18T10:41:54.300Z,79.94
2022-08-18T10:42:53.823Z,80.00
2022-08-18T10:43:58.117Z,78.37
2022-08-18T10:44:54.201Z,77.13
2022-08-18T10:46:24.642Z,76.54
2022-08-18T10:46:54.192Z,77.07
2022-08-18T10:47:53.176Z,76.67
2022-08-18T10:48:53.156Z,77.17
2022-08-18T10:49:53.136Z,77.17
2022-08-18T10:50:53.247Z,77.43
2022-08-18T10:51:59.259Z,77.09
2022-08-18T10:53:24.045Z,75.07
2022-08-18T10:53:54.119Z,72.54
2022-08-18T10:54:54.572Z,71.25
2022-08-18T10:55:53.111Z,67.77
2022-08-18T10:56:53.200Z,68.93
2022-08-18T10:57:53.038Z,70.32
2022-08-18T10:58:53.052Z,71.05
2022-08-18T10:59:54.873Z,72.38
2022-08-18T11:00:53.020Z,72.31
2022-08-18T11:01:52.994Z,72.61
2022-08-18T11:03:02.018Z,73.07
2022-08-18T11:03:55.567Z,71.41
2022-08-18T11:05:53.930Z,68.96
2022-08-18T11:06:52.925Z,67.54
2022-08-18T11:07:56.453Z,69.39
2022-08-18T11:08:55.162Z,70.98
2022-08-18T11:10:04.724Z,70.62
2022-08-18T11:11:27.603Z,67.94
2022-08-18T11:11:59.141Z,65.53
2022-08-18T11:12:53.946Z,62.74
2022-08-18T11:13:52.871Z,61.19
2022-08-18T11:14:52.818Z,59.98
2022-08-18T11:15:52.841Z,57.75
2022-08-18T11:16:54.036Z,57.63
2022-08-18T11:17:52.765Z,58.42
2022-08-18T11:18:54.223Z,58.28
2022-08-18T11:19:52.744Z,59.03
2022-08-18T11:20:52.737Z,58.29
2022-08-18T11:21:52.734Z,57.50
2022-08-18T11:22:52.934Z,57.11
2022-08-18T11:23:52.701Z,56.32
2022-08-18T11:24:52.703Z,55.48
2022-08-18T11:25:52.661Z,55.23
2022-08-18T11:26:53.637Z,53.53
2022-08-18T11:27:53.032Z,53.58
2022-08-18T11:28:52.636Z,52.00
2022-08-18T11:29:52.633Z,51.44
2022-08-18T11:30:52.614Z,53.83
2022-08-18T11:31:53.563Z,56.12
2022-08-18T11:32:53.448Z,56.10
2022-08-18T11:33:52.916Z,55.70
2022-08-18T11:34:52.972Z,55.83
2022-08-18T11:35:52.557Z,55.08
2022-08-18T11:36:52.558Z,53.39
2022-08-18T11:37:53.497Z,54.49
2022-08-18T11:38:52.517Z,53.70
2022-08-18T11:39:52.548Z,54.72
2022-08-18T11:41:10.398Z,56.35
2022-08-18T11:41:53.561Z,57.26
2022-08-18T11:42:52.643Z,57.17
2022-08-18T11:43:52.497Z,58.28
2022-08-18T11:44:52.432Z,59.19
2022-08-18T11:45:52.436Z,58.70
2022-08-18T11:46:52.629Z,60.01
2022-08-18T11:47:52.402Z,59.12
2022-08-18T11:48:53.743Z,58.80
2022-08-18T11:49:53.784Z,58.15
2022-08-18T11:50:54.662Z,55.87
2022-08-18T11:51:52.368Z,56.48
2022-08-18T11:52:53.668Z,58.29
2022-08-18T11:53:57.990Z,61.44
2022-08-18T11:54:54.465Z,60.33
2022-08-18T11:55:53.217Z,59.81
2022-08-18T11:56:52.433Z,58.77
2022-08-18T11:57:52.273Z,58.28
2022-08-18T11:58:52.257Z,58.28
2022-08-18T12:00:00.217Z,58.01
2022-08-18T12:00:53.204Z,58.60
2022-08-18T12:01:52.527Z,59.02
2022-08-18T12:02:52.350Z,59.84
2022-08-18T12:03:52.189Z,60.99
2022-08-18T12:04:52.171Z,61.51
2022-08-18T12:05:54.310Z,62.36
2022-08-18T12:06:52.170Z,62.88
2022-08-18T12:07:57.309Z,63.48
2022-08-18T12:08:58.012Z,63.48
2022-08-18T12:10:17.440Z,64.11
2022-08-18T12:10:53.102Z,64.60
2022-08-18T12:11:52.090Z,65.59
2022-08-18T12:12:52.894Z,65.49
2022-08-18T12:13:52.051Z,64.50
2022-08-18T12:14:52.034Z,64.40
2022-08-18T12:15:52.021Z,64.70
2022-08-18T12:16:53.996Z,64.73
2022-08-18T12:17:52.975Z,65.56
2022-08-18T12:18:51.985Z,66.78
2022-08-18T12:19:51.992Z,67.57
2022-08-18T12:20:51.944Z,67.01
2022-08-18T12:21:51.978Z,67.18
2022-08-18T12:22:52.482Z,67.31
2022-08-18T12:23:52.534Z,67.21
2022-08-18T12:24:51.900Z,67.74
2022-08-18T12:25:52.099Z,68.63
2022-08-18T12:26:52.142Z,68.70
2022-08-18T12:27:51.855Z,67.80
2022-08-18T12:28:51.883Z,67.90
2022-08-18T12:29:51.842Z,67.18
2022-08-18T12:30:56.667Z,66.35
2022-08-18T12:31:52.813Z,66.61
2022-08-18T12:33:00.867Z,65.06
2022-08-18T12:34:00.670Z,63.71
2022-08-18T12:34:52.751Z,62.87
2022-08-18T12:35:51.763Z,61.05
2022-08-18T12:36:51.744Z,57.98
2022-08-18T12:37:59.714Z,57.04
2022-08-18T12:38:56.202Z,56.29
2022-08-18T12:39:51.744Z,54.44
2022-08-18T12:40:51.727Z,52.33
2022-08-18T12:41:51.690Z,53.49
2022-08-18T12:42:51.780Z,56.77
2022-08-18T12:43:58.801Z,58.60
2022-08-18T12:44:52.655Z,57.92
2022-08-18T12:45:51.607Z,55.77
2022-08-18T12:46:51.621Z,54.32
2022-08-18T12:47:51.585Z,55.73
2022-08-18T12:48:51.598Z,58.30
2022-08-18T12:49:51.607Z,59.08
2022-08-18T12:50:58.584Z,61.71
2022-08-18T12:51:52.583Z,61.38
2022-08-18T12:52:51.731Z,61.02
2022-08-18T12:53:58.191Z,62.04
2022-08-18T12:54:55.294Z,62.79
2022-08-18T12:55:51.481Z,60.89
2022-08-18T12:56:51.501Z,60.89
2022-08-18T12:57:51.977Z,60.07
2022-08-18T12:58:51.453Z,59.94
2022-08-18T12:59:51.464Z,60.36
2022-08-18T13:00:51.577Z,61.18
2022-08-18T13:01:51.427Z,61.29
2022-08-18T13:02:52.487Z,60.10
2022-08-18T13:04:03.619Z,60.13
2022-08-18T13:05:51.356Z,60.39
2022-08-18T13:06:59.281Z,58.86
2022-08-18T13:07:52.472Z,57.19
2022-08-18T13:09:01.191Z,54.97
2022-08-18T13:09:53.526Z,55.76
2022-08-18T13:10:51.373Z,53.83
2022-08-18T13:11:52.321Z,54.16